SVMC/MAR METAR and TAF weather

Enter ICAO airport designator
Station Type Date Time Source
SVMC METAR 2018/09/19 23:00 UTC NOAA

SVMC 192300Z 05003KT 9999 BKN013 31/26 Q1008


Station Type Date Time Source
SVMC Decoded METAR 2018/09/19 23:00 UTC NOAA

Maracaibo-La Chinita, Venezuela (SVMC) 10-34N 071-44W 65M
Sep 19, 2018 - 07:00 PM EDT / 2018.09.19 2300 UTC
Wind: from the NE (050 degrees) at 3 MPH (3 KT):0
Visibility: greater than 7 mile(s):0
Sky conditions: mostly cloudy
Temperature: 87 F (31 C)
Heat index: 99.7 F (37.6 C):1
Dew Point: 78 F (26 C)
Relative Humidity: 74%
Pressure (altimeter): 29.77 in. Hg (1008 hPa)
ob: SVMC 192300Z 05003KT 9999 BKN013 31/26 Q1008
cycle: 23

Station Type Date Time Source
SVMC TAF 2019/04/19 06:13 UTC NOAA

TAF SVMC 190400Z 1906/2006 06005KT 9000 DZ FEW016 TX30/1912Z TN26/1906Z
TEMPO 1906/1910 03005KT 9000 DZ BKN016 SCT100

Example: see airport list